createdAt,value
2017-08-24T00:00:57.962Z,5.33
2017-08-24T00:03:25.498Z,5.53
2017-08-24T00:05:53.071Z,5.43
2017-08-24T00:08:20.599Z,5.17
2017-08-24T00:10:48.919Z,6.20
2017-08-24T00:13:16.455Z,5.93
2017-08-24T00:15:44.034Z,5.33
2017-08-24T00:18:11.571Z,5.80
2017-08-24T00:20:39.102Z,5.43
2017-08-24T00:23:06.622Z,5.17
2017-08-24T00:25:34.155Z,5.70
2017-08-24T00:28:01.688Z,5.77
2017-08-24T00:30:29.220Z,6.00
2017-08-24T00:32:56.751Z,6.30
2017-08-24T00:35:24.283Z,5.57
2017-08-24T00:37:52.578Z,5.50
2017-08-24T00:40:20.106Z,5.47
2017-08-24T00:42:47.814Z,5.70
2017-08-24T00:45:15.379Z,5.30
2017-08-24T00:47:42.931Z,4.93
2017-08-24T00:50:10.454Z,5.60
2017-08-24T00:52:38.019Z,5.30
2017-08-24T00:55:05.555Z,5.40
2017-08-24T00:57:33.083Z,5.53
2017-08-24T01:00:00.618Z,5.00
2017-08-24T01:02:28.143Z,5.57
2017-08-24T01:04:55.670Z,5.67
2017-08-24T01:07:23.199Z,6.63
2017-08-24T01:09:50.759Z,5.40
2017-08-24T01:12:18.296Z,5.57
2017-08-24T01:14:46.611Z,5.33
2017-08-24T01:17:14.148Z,5.93
2017-08-24T01:19:41.728Z,6.33
2017-08-24T01:22:09.258Z,5.10
2017-08-24T01:24:36.787Z,5.10
2017-08-24T01:27:04.323Z,7.13
2017-08-24T01:29:31.854Z,5.57
2017-08-24T01:31:59.446Z,5.67
2017-08-24T01:34:26.970Z,5.53
2017-08-24T01:36:55.382Z,5.10
2017-08-24T01:39:22.917Z,5.80
2017-08-24T01:41:50.478Z,5.53
2017-08-24T01:44:18.078Z,5.20
2017-08-24T01:46:45.738Z,5.33
2017-08-24T01:49:13.275Z,5.67
2017-08-24T01:54:13.350Z,5.40
2017-08-24T01:56:40.886Z,5.50
2017-08-24T01:59:08.450Z,5.90
2017-08-24T02:01:36.078Z,5.53
2017-08-24T02:04:03.639Z,4.70
2017-08-24T02:06:31.161Z,5.00
2017-08-24T02:08:58.710Z,5.67
2017-08-24T02:11:26.234Z,5.07
2017-08-24T02:13:53.782Z,6.07
2017-08-24T02:16:21.310Z,5.60
2017-08-24T02:18:48.867Z,5.90
2017-08-24T02:21:16.405Z,5.37
2017-08-24T02:23:43.955Z,5.00
2017-08-24T02:26:11.483Z,5.57
2017-08-24T02:28:39.034Z,5.10
2017-08-24T02:31:06.569Z,5.60
2017-08-24T02:33:34.150Z,4.90
2017-08-24T02:36:01.674Z,5.00
2017-08-24T02:38:29.199Z,5.10
2017-08-24T02:40:56.726Z,5.33
2017-08-24T02:43:24.250Z,5.40
2017-08-24T02:45:51.778Z,5.77
2017-08-24T02:48:19.303Z,5.67
2017-08-24T02:50:46.863Z,5.53
2017-08-24T02:53:14.390Z,5.00
2017-08-24T02:55:41.947Z,5.10
2017-08-24T02:58:09.571Z,5.70
2017-08-24T03:00:37.134Z,5.93
2017-08-24T03:03:04.658Z,5.83
2017-08-24T03:05:32.250Z,5.80
2017-08-24T03:07:59.769Z,5.50
2017-08-24T03:10:27.315Z,5.07
2017-08-24T03:12:54.939Z,5.40
2017-08-24T03:15:22.539Z,5.80
2017-08-24T03:17:50.163Z,5.93
2017-08-24T03:20:17.692Z,6.20
2017-08-24T03:22:45.210Z,5.67
2017-08-24T03:25:12.735Z,5.10
2017-08-24T03:27:40.286Z,5.30
2017-08-24T03:30:07.826Z,5.70
2017-08-24T03:32:35.383Z,5.80
2017-08-24T03:35:02.914Z,5.47
2017-08-24T03:37:30.543Z,5.97
2017-08-24T03:39:58.070Z,5.27
2017-08-24T03:42:25.623Z,5.27
2017-08-24T03:44:53.155Z,5.90
2017-08-24T03:47:20.734Z,5.20
2017-08-24T03:49:48.270Z,5.50
2017-08-24T03:52:15.852Z,5.30
2017-08-24T03:54:43.386Z,4.87
2017-08-24T03:57:10.913Z,5.53
2017-08-24T03:59:38.437Z,6.13
2017-08-24T04:02:05.966Z,7.03
2017-08-24T04:04:33.502Z,8.03
2017-08-24T04:07:01.063Z,8.10
2017-08-24T04:18:01.579Z,7.90
2017-08-24T04:20:29.131Z,7.90
2017-08-24T04:22:56.662Z,7.13
2017-08-24T04:25:24.202Z,7.10
2017-08-24T04:27:51.731Z,7.37
2017-08-24T04:30:19.299Z,7.70
2017-08-24T04:32:46.872Z,8.10
2017-08-24T04:35:14.404Z,7.80
2017-08-24T04:37:41.943Z,7.83
2017-08-24T04:40:09.491Z,7.90
2017-08-24T04:42:37.022Z,8.80
2017-08-24T04:45:04.575Z,8.10
2017-08-24T04:47:32.102Z,7.73
2017-08-24T04:49:59.640Z,8.30
2017-08-24T04:52:27.170Z,7.77
2017-08-24T04:54:54.695Z,8.03
2017-08-24T04:57:22.239Z,7.60
2017-08-24T04:59:49.767Z,8.00
2017-08-24T05:02:17.322Z,7.83
2017-08-24T05:04:44.858Z,8.07
2017-08-24T05:07:12.514Z,8.27
2017-08-24T05:09:40.038Z,7.57
2017-08-24T05:12:07.559Z,7.77
2017-08-24T05:14:35.091Z,8.20
2017-08-24T05:17:02.623Z,9.00
2017-08-24T05:19:31.309Z,7.40
2017-08-24T05:21:58.854Z,7.57
2017-08-24T05:24:26.382Z,8.03
2017-08-24T05:26:54.013Z,7.60
2017-08-24T05:29:21.538Z,8.53
2017-08-24T05:31:49.848Z,8.83
2017-08-24T05:34:17.419Z,8.37
2017-08-24T05:36:44.956Z,7.97
2017-08-24T05:39:12.528Z,8.87
2017-08-24T05:41:40.066Z,7.67
2017-08-24T05:44:08.362Z,9.77
2017-08-24T05:46:35.953Z,9.50
2017-08-24T05:49:03.482Z,9.23
2017-08-24T05:51:31.014Z,9.63
2017-08-24T05:53:58.551Z,9.60
2017-08-24T05:56:26.191Z,10.10
2017-08-24T05:58:53.722Z,10.73
2017-08-24T06:01:21.262Z,10.20
2017-08-24T06:03:48.794Z,9.80
2017-08-24T06:06:16.360Z,10.07
2017-08-24T06:08:43.896Z,11.90
2017-08-24T06:11:11.555Z,13.37
2017-08-24T06:13:39.091Z,14.03
2017-08-24T06:16:06.665Z,15.57
2017-08-24T06:18:34.203Z,15.90
2017-08-24T06:21:01.738Z,20.47
2017-08-24T06:23:29.271Z,21.60
2017-08-24T06:25:56.910Z,19.83
2017-08-24T06:28:24.450Z,21.77
2017-08-24T06:30:51.983Z,19.27
2017-08-24T06:33:19.546Z,20.93
2017-08-24T06:35:47.078Z,21.30
2017-08-24T06:38:14.716Z,24.17
2017-08-24T06:40:42.258Z,21.57
2017-08-24T06:43:09.814Z,22.47
2017-08-24T06:45:37.346Z,24.80
2017-08-24T06:48:04.926Z,24.70
2017-08-24T06:50:32.462Z,27.03
2017-08-24T06:53:00.083Z,26.17
2017-08-24T06:55:27.646Z,27.37
2017-08-24T06:57:55.190Z,28.47
2017-08-24T07:00:22.727Z,26.80
2017-08-24T07:02:50.270Z,28.00
2017-08-24T07:05:17.834Z,29.73
2017-08-24T07:07:45.366Z,29.90
2017-08-24T07:10:12.926Z,31.40
2017-08-24T07:12:40.458Z,34.57
2017-08-24T07:15:08.021Z,34.57
2017-08-24T07:17:35.564Z,35.50
2017-08-24T07:20:03.135Z,38.23
2017-08-24T07:22:30.678Z,36.57
2017-08-24T07:24:58.235Z,38.60
2017-08-24T07:27:25.787Z,38.90
2017-08-24T07:29:53.321Z,39.50
2017-08-24T07:32:20.949Z,40.23
2017-08-24T07:34:48.483Z,38.47
2017-08-24T07:37:16.042Z,40.33
2017-08-24T07:39:43.658Z,42.70
2017-08-24T07:42:11.239Z,38.83
2017-08-24T07:44:38.859Z,42.73
2017-08-24T07:47:06.414Z,39.40
2017-08-24T07:49:33.956Z,42.07
2017-08-24T07:52:01.515Z,41.00
2017-08-24T07:54:29.111Z,41.67
2017-08-24T07:56:56.684Z,42.17
2017-08-24T07:59:24.219Z,41.67
2017-08-24T08:01:51.763Z,43.03
2017-08-24T08:04:19.303Z,41.43
2017-08-24T08:06:46.847Z,40.20
2017-08-24T08:09:14.383Z,40.43
2017-08-24T08:11:41.918Z,40.87
2017-08-24T08:14:09.462Z,40.47
2017-08-24T08:16:36.995Z,41.80
2017-08-24T08:19:04.561Z,42.40
2017-08-24T08:21:32.174Z,40.73
2017-08-24T08:23:59.744Z,38.97
2017-08-24T08:26:27.283Z,40.10
2017-08-24T08:31:28.617Z,38.60
2017-08-24T08:33:56.174Z,39.37
2017-08-24T08:36:24.479Z,40.10
2017-08-24T08:38:52.063Z,36.47
2017-08-24T08:41:19.627Z,36.57
2017-08-24T08:43:47.196Z,34.50
2017-08-24T08:46:14.744Z,35.00
2017-08-24T08:48:42.411Z,33.80
2017-08-24T08:51:09.952Z,32.73
2017-08-24T08:53:37.531Z,36.27
2017-08-24T08:56:05.075Z,33.13
2017-08-24T08:58:32.614Z,30.73
2017-08-24T09:01:00.167Z,33.33
2017-08-24T09:03:28.479Z,32.60
2017-08-24T09:05:56.047Z,31.30
2017-08-24T09:08:23.590Z,29.90
2017-08-24T09:10:51.161Z,28.57
2017-08-24T09:13:18.699Z,29.17
2017-08-24T09:15:46.274Z,29.23
2017-08-24T09:18:13.824Z,30.40
2017-08-24T09:20:41.394Z,27.60
2017-08-24T09:23:08.938Z,29.30
2017-08-24T09:25:36.511Z,28.63
2017-08-24T09:28:04.055Z,26.70
2017-08-24T09:30:31.590Z,28.97
2017-08-24T09:32:59.123Z,28.00
2017-08-24T09:35:26.663Z,25.17
2017-08-24T09:37:54.200Z,27.67
2017-08-24T09:40:21.743Z,25.97
2017-08-24T09:42:49.287Z,25.17
2017-08-24T09:45:16.826Z,25.60
2017-08-24T09:47:44.372Z,27.77
2017-08-24T09:50:11.910Z,27.03
2017-08-24T09:52:39.442Z,26.80
2017-08-24T09:55:06.983Z,27.00
2017-08-24T09:57:34.519Z,26.07
2017-08-24T10:00:02.051Z,26.53
2017-08-24T10:02:29.592Z,25.77
2017-08-24T10:04:57.135Z,25.87
2017-08-24T10:07:24.706Z,25.63
2017-08-24T10:09:52.246Z,25.40
2017-08-24T10:12:19.783Z,26.20
2017-08-24T10:14:47.518Z,26.60
2017-08-24T10:17:15.058Z,27.37
2017-08-24T10:19:42.595Z,25.60
2017-08-24T10:22:10.139Z,28.23
2017-08-24T10:24:37.678Z,23.90
2017-08-24T10:27:05.219Z,27.53
2017-08-24T10:29:32.827Z,27.90
2017-08-24T10:32:00.315Z,26.83
2017-08-24T10:34:27.879Z,27.30
2017-08-24T10:36:55.584Z,27.03
2017-08-24T10:39:23.156Z,25.57
2017-08-24T10:41:50.694Z,26.60
2017-08-24T10:44:18.232Z,26.10
2017-08-24T10:46:46.534Z,26.20
2017-08-24T10:49:14.075Z,26.47
2017-08-24T10:51:41.615Z,27.40
2017-08-24T10:54:09.150Z,25.00
2017-08-24T10:56:36.684Z,25.27
2017-08-24T10:59:04.254Z,24.77
2017-08-24T11:01:31.814Z,24.57
2017-08-24T11:03:59.355Z,23.90
2017-08-24T11:06:26.930Z,23.30
2017-08-24T11:08:54.483Z,24.80
2017-08-24T11:11:22.059Z,23.77
2017-08-24T11:13:49.603Z,24.87
2017-08-24T11:16:17.138Z,24.20
2017-08-24T11:18:44.744Z,24.40
2017-08-24T11:21:12.284Z,22.50
2017-08-24T11:23:42.668Z,22.17
2017-08-24T11:26:11.007Z,22.80
2017-08-24T11:28:38.547Z,22.60
2017-08-24T11:31:06.084Z,21.17
2017-08-24T11:33:33.642Z,22.77
2017-08-24T11:36:01.188Z,20.60
2017-08-24T11:38:29.199Z,17.90
2017-08-24T11:40:56.745Z,19.07
2017-08-24T11:43:24.293Z,18.97
2017-08-24T11:45:51.838Z,23.10
2017-08-24T11:48:19.381Z,19.60
2017-08-24T11:50:46.922Z,21.30
2017-08-24T11:53:14.460Z,17.73
2017-08-24T11:55:42.000Z,18.30
2017-08-24T11:58:09.544Z,19.33
2017-08-24T12:00:37.088Z,17.57
2017-08-24T12:03:04.637Z,21.70
2017-08-24T12:05:32.203Z,21.33
2017-08-24T12:07:59.739Z,22.03
2017-08-24T12:10:27.304Z,20.80
2017-08-24T12:12:54.867Z,19.10
2017-08-24T12:15:22.442Z,19.90
2017-08-24T12:17:49.983Z,20.90
2017-08-24T12:20:17.554Z,19.47
2017-08-24T12:22:45.091Z,19.60
2017-08-24T12:25:12.623Z,20.00
2017-08-24T12:27:40.162Z,23.57
2017-08-24T12:30:07.704Z,20.80
2017-08-24T12:32:35.248Z,20.80
2017-08-24T12:35:02.795Z,20.23
2017-08-24T12:37:30.354Z,20.00
2017-08-24T12:39:57.892Z,20.20
2017-08-24T12:42:25.456Z,20.97
2017-08-24T12:44:52.999Z,21.80
2017-08-24T12:47:20.568Z,21.77
2017-08-24T12:49:48.875Z,21.43
2017-08-24T12:52:16.460Z,19.73
2017-08-24T12:54:43.995Z,20.83
2017-08-24T12:57:11.535Z,21.00
2017-08-24T12:59:39.076Z,20.17
2017-08-24T13:02:06.619Z,20.73
2017-08-24T13:04:34.155Z,20.50
2017-08-24T13:07:01.721Z,20.97
2017-08-24T13:09:29.261Z,21.73
2017-08-24T13:11:56.845Z,23.37
2017-08-24T13:14:24.401Z,22.53
2017-08-24T13:16:51.942Z,22.27
2017-08-24T13:19:19.512Z,23.13
2017-08-24T13:21:47.055Z,23.70
2017-08-24T13:24:14.651Z,23.57
2017-08-24T13:26:42.192Z,23.10
2017-08-24T13:29:09.755Z,21.97
2017-08-24T13:31:37.300Z,23.33
2017-08-24T13:34:04.884Z,23.43
2017-08-24T13:36:32.423Z,23.37
2017-08-24T13:38:59.974Z,23.10
2017-08-24T13:41:27.514Z,23.07
2017-08-24T13:43:55.056Z,22.53
2017-08-24T13:46:22.626Z,22.00
2017-08-24T13:48:50.168Z,20.97
2017-08-24T13:51:20.538Z,22.33
2017-08-24T13:53:48.439Z,21.03
2017-08-24T13:56:16.023Z,21.77
2017-08-24T13:58:43.564Z,18.67
2017-08-24T14:01:11.099Z,19.67
2017-08-24T14:03:38.635Z,19.33
2017-08-24T14:06:06.179Z,17.47
2017-08-24T14:08:33.715Z,18.57
2017-08-24T14:11:01.263Z,17.30
2017-08-24T14:13:28.815Z,18.00
2017-08-24T14:15:56.358Z,18.73
2017-08-24T14:18:23.895Z,17.07
2017-08-24T14:20:51.439Z,17.73
2017-08-24T14:23:19.012Z,18.23
2017-08-24T14:25:46.558Z,18.10
2017-08-24T14:28:14.138Z,16.60
2017-08-24T14:30:41.683Z,19.13
2017-08-24T14:33:09.260Z,17.70
2017-08-24T14:35:36.806Z,18.43
2017-08-24T14:38:04.350Z,19.00
2017-08-24T14:40:31.898Z,18.53
2017-08-24T14:42:59.439Z,17.93
2017-08-24T14:45:26.981Z,17.30
2017-08-24T14:47:54.519Z,17.80
2017-08-24T14:50:22.059Z,16.20
2017-08-24T14:52:49.603Z,17.13
2017-08-24T14:55:17.144Z,18.00
2017-08-24T14:57:45.539Z,19.33
2017-08-24T15:00:13.108Z,16.27
2017-08-24T15:02:40.642Z,17.10
2017-08-24T15:05:08.211Z,17.00
2017-08-24T15:07:35.757Z,16.87
2017-08-24T15:10:03.316Z,16.07
2017-08-24T15:12:30.855Z,15.30
2017-08-24T15:14:58.416Z,16.67
2017-08-24T15:17:25.963Z,16.07
2017-08-24T15:19:53.508Z,16.17
2017-08-24T15:22:21.054Z,14.43
2017-08-24T15:24:48.591Z,15.20
2017-08-24T15:27:16.148Z,16.67
2017-08-24T15:29:43.686Z,15.60
2017-08-24T15:32:11.266Z,14.73
2017-08-24T15:34:38.808Z,14.60
2017-08-24T15:37:06.368Z,16.97
2017-08-24T15:39:33.908Z,13.33
2017-08-24T15:42:01.476Z,14.13
2017-08-24T15:44:29.020Z,15.30
2017-08-24T15:46:56.588Z,12.70
2017-08-24T15:49:24.127Z,14.60
2017-08-24T15:51:51.693Z,15.90
2017-08-24T15:54:19.235Z,14.97
2017-08-24T15:56:46.801Z,13.37
2017-08-24T15:59:14.352Z,13.50
2017-08-24T16:01:41.931Z,13.90
2017-08-24T16:04:09.471Z,14.77
2017-08-24T16:06:37.015Z,12.73
2017-08-24T16:09:04.775Z,12.27
2017-08-24T16:11:32.318Z,13.90
2017-08-24T16:13:59.891Z,13.60
2017-08-24T16:16:27.578Z,13.53
2017-08-24T16:18:55.219Z,13.67
2017-08-24T16:21:22.831Z,12.80
2017-08-24T16:23:50.425Z,14.00
2017-08-24T16:26:18.118Z,16.83
2017-08-24T16:28:45.685Z,15.13
2017-08-24T16:31:13.233Z,15.17
2017-08-24T16:33:40.816Z,15.23
2017-08-24T16:36:08.362Z,16.40
2017-08-24T16:38:35.899Z,14.63
2017-08-24T16:41:03.543Z,15.80
2017-08-24T16:43:31.098Z,14.97
2017-08-24T16:45:58.650Z,17.40
2017-08-24T16:48:26.188Z,15.40
2017-08-24T16:50:53.734Z,16.90
2017-08-24T16:53:21.280Z,17.90
2017-08-24T16:55:48.818Z,16.70
2017-08-24T16:58:16.351Z,16.97
2017-08-24T17:00:43.975Z,17.23
2017-08-24T17:03:11.514Z,18.00
2017-08-24T17:05:39.042Z,17.63
2017-08-24T17:08:06.575Z,16.90
2017-08-24T17:10:34.111Z,17.33
2017-08-24T17:13:01.647Z,16.60
2017-08-24T17:15:29.191Z,17.10
2017-08-24T17:17:56.734Z,17.57
2017-08-24T17:20:24.265Z,16.27
2017-08-24T17:22:51.806Z,16.80
2017-08-24T17:25:19.343Z,15.30
2017-08-24T17:27:47.640Z,17.60
2017-08-24T17:30:15.176Z,16.30
2017-08-24T17:32:43.470Z,16.73
2017-08-24T17:35:11.019Z,16.57
2017-08-24T17:37:38.599Z,16.40
2017-08-24T17:40:06.131Z,17.33
2017-08-24T17:42:33.667Z,22.63
2017-08-24T17:45:01.203Z,17.93
2017-08-24T17:47:28.731Z,17.43
2017-08-24T17:49:56.259Z,18.27
2017-08-24T17:52:23.795Z,20.17
2017-08-24T17:54:51.331Z,18.13
2017-08-24T17:57:19.638Z,16.67
2017-08-24T17:59:47.190Z,16.80
2017-08-24T18:02:14.719Z,17.50
2017-08-24T18:04:42.257Z,18.10
2017-08-24T18:07:09.786Z,16.40
2017-08-24T18:09:37.334Z,18.10
2017-08-24T18:12:04.871Z,18.40
2017-08-24T18:14:32.437Z,17.77
2017-08-24T18:16:59.991Z,19.67
2017-08-24T18:19:27.527Z,18.07
2017-08-24T18:21:55.063Z,17.40
2017-08-24T18:24:22.603Z,18.77
2017-08-24T18:26:50.135Z,17.70
2017-08-24T18:29:17.672Z,17.70
2017-08-24T18:31:45.208Z,18.90
2017-08-24T18:34:12.748Z,24.80
2017-08-24T18:36:40.328Z,21.10
2017-08-24T18:39:07.880Z,20.13
2017-08-24T18:41:35.415Z,19.47
2017-08-24T18:44:02.954Z,18.63
2017-08-24T18:46:30.491Z,18.70
2017-08-24T18:48:58.033Z,17.30
2017-08-24T18:51:25.558Z,18.47
2017-08-24T18:53:53.094Z,16.80
2017-08-24T18:56:21.423Z,16.37
2017-08-24T18:58:48.991Z,15.97
2017-08-24T19:01:16.533Z,15.70
2017-08-24T19:03:44.095Z,15.57
2017-08-24T19:06:11.639Z,15.03
2017-08-24T19:08:39.214Z,16.93
2017-08-24T19:11:06.779Z,19.40
2017-08-24T19:13:34.320Z,20.77
2017-08-24T19:16:01.856Z,21.00
2017-08-24T19:18:30.163Z,20.80
2017-08-24T19:20:57.708Z,26.20
2017-08-24T19:23:25.261Z,23.40
2017-08-24T19:25:52.799Z,25.47
2017-08-24T19:28:20.369Z,23.33
2017-08-24T19:30:47.942Z,23.80
2017-08-24T19:33:16.238Z,22.80
2017-08-24T19:35:43.804Z,23.07
2017-08-24T19:38:11.346Z,22.47
2017-08-24T19:40:39.692Z,23.40
2017-08-24T19:43:07.235Z,25.23
2017-08-24T19:45:34.776Z,23.07
2017-08-24T19:48:02.315Z,21.57
2017-08-24T19:50:29.850Z,22.50
2017-08-24T19:52:58.171Z,23.10
2017-08-24T19:55:25.714Z,23.80
2017-08-24T19:57:53.251Z,22.87
2017-08-24T20:00:20.794Z,23.50
2017-08-24T20:02:48.335Z,21.73
2017-08-24T20:05:15.878Z,22.30
2017-08-24T20:07:43.410Z,24.20
2017-08-24T20:10:11.721Z,24.53
2017-08-24T20:12:39.262Z,24.47
2017-08-24T20:15:06.833Z,24.47
2017-08-24T20:17:34.427Z,23.73
2017-08-24T20:20:01.963Z,25.60
2017-08-24T20:22:29.520Z,25.13
2017-08-24T20:24:57.054Z,24.50
2017-08-24T20:27:24.639Z,28.67
2017-08-24T20:29:52.175Z,26.30
2017-08-24T20:32:19.707Z,26.53
2017-08-24T20:34:47.240Z,25.90
2017-08-24T20:37:14.774Z,25.97
2017-08-24T20:39:42.302Z,25.60
2017-08-24T20:42:09.835Z,25.20
2017-08-24T20:44:37.367Z,25.73
2017-08-24T20:47:04.902Z,24.90
2017-08-24T20:49:32.466Z,24.30
2017-08-24T20:52:00.004Z,23.77
2017-08-24T20:54:27.578Z,23.37
2017-08-24T20:56:55.120Z,23.27
2017-08-24T20:59:22.760Z,25.00
2017-08-24T21:01:50.307Z,24.87
2017-08-24T21:04:17.845Z,23.87
2017-08-24T21:06:45.430Z,23.10
2017-08-24T21:09:12.991Z,23.77
2017-08-24T21:11:40.547Z,22.10
2017-08-24T21:14:08.115Z,23.40
2017-08-24T21:16:36.451Z,22.63
2017-08-24T21:19:04.752Z,23.73
2017-08-24T21:21:32.310Z,22.07
2017-08-24T21:23:59.849Z,24.30
2017-08-24T21:26:27.475Z,23.23
2017-08-24T21:28:55.031Z,24.43
2017-08-24T21:31:22.590Z,23.73
2017-08-24T21:33:50.147Z,23.60
2017-08-24T21:36:17.803Z,22.50
2017-08-24T21:38:45.343Z,22.90
2017-08-24T21:41:12.929Z,24.63
2017-08-24T21:43:40.466Z,23.87
2017-08-24T21:46:08.007Z,23.07
2017-08-24T21:48:36.311Z,23.50
2017-08-24T21:51:03.852Z,24.03
2017-08-24T21:53:31.419Z,23.33
2017-08-24T21:55:58.959Z,25.73
2017-08-24T21:58:27.287Z,23.97
2017-08-24T22:00:54.832Z,24.53
2017-08-24T22:03:22.395Z,26.03
2017-08-24T22:05:49.937Z,24.77
2017-08-24T22:08:17.498Z,24.63
2017-08-24T22:10:45.044Z,24.43
2017-08-24T22:13:12.647Z,25.00
2017-08-24T22:15:40.186Z,25.50
2017-08-24T22:18:07.722Z,25.23
2017-08-24T22:20:36.024Z,24.63
2017-08-24T22:23:03.562Z,24.57
2017-08-24T22:25:31.095Z,23.50
2017-08-24T22:27:58.635Z,24.80
2017-08-24T22:30:26.194Z,24.10
2017-08-24T22:32:53.732Z,23.10
2017-08-24T22:35:21.286Z,25.27
2017-08-24T22:37:48.863Z,24.13
2017-08-24T22:40:16.427Z,25.00
2017-08-24T22:42:43.964Z,25.57
2017-08-24T22:45:11.543Z,26.03
2017-08-24T22:47:39.079Z,26.43
2017-08-24T22:50:06.618Z,24.27
2017-08-24T22:52:34.180Z,24.17
2017-08-24T22:55:07.265Z,23.83
2017-08-24T23:10:56.956Z,23.80
2017-08-24T23:13:24.494Z,22.77
2017-08-24T23:15:52.026Z,24.17
2017-08-24T23:18:19.558Z,24.17
2017-08-24T23:20:47.092Z,25.00
2017-08-24T23:23:14.626Z,22.47
2017-08-24T23:25:42.168Z,25.13
2017-08-24T23:28:09.720Z,23.07
2017-08-24T23:30:37.251Z,24.50
2017-08-24T23:33:04.874Z,23.67
2017-08-24T23:35:32.426Z,24.90
2017-08-24T23:37:59.955Z,24.80
2017-08-24T23:40:28.255Z,24.20
2017-08-24T23:42:55.827Z,22.80
2017-08-24T23:45:23.363Z,24.87
2017-08-24T23:47:50.899Z,23.70
2017-08-24T23:50:18.435Z,24.07
2017-08-24T23:52:45.967Z,22.43
2017-08-24T23:55:13.502Z,23.30
2017-08-24T23:57:41.046Z,21.63
